Back to Top

Language: 

My Weather Underground Personal Weather Station Historical Data with Graphs...

Delerius Weather Station Historical Data
Daily Summary for July 27, 2017 Units:  Metric    English   Both
« Previous Day
Next Day »
Daily Weekly Monthly Yearly Custom
  High: Low: Average:
Temperature: 18.8 °C 11.3 °C 14.1 °C
Dew Point: 13.9 °C 8.9 °C 11.2 °C
Humidity: 92 % 64 % 83 %
Wind Speed: 25.7 km/h 3.2 km/h 11.6 km/h
Wind Gust: 43.5 km/h - -
Wind:- - WSW
Pressure: 1003.6 hPa 1001.2 hPa -
Precipitation: 2.29 mm    
Historical Graphs
 
 
Tabular Data for July 27, 2017
Time Temperature Dew Point Pressure Wind Wind Speed Wind Gust Humidity Rainfall Rate (Hourly) solar Conditions
00:00 12.4 °C 10.3 °C 1001.9 hPa WSW 8 km/h 17.7 km/h 87 % 0 mm 0 W/m2
00:05 12.3 °C 10.4 °C 1002.3 hPa WSW 6.4 km/h 12.9 km/h 88 % 0 mm 0 W/m2
00:10 12.3 °C 10.2 °C 1001.9 hPa WSW 6.4 km/h 17.7 km/h 87 % 0 mm 0 W/m2
00:15 12.2 °C 10.1 °C 1002.3 hPa WSW 8 km/h 17.7 km/h 87 % 0 mm 0 W/m2
00:20 12.1 °C 10 °C 1002.3 hPa West 11.3 km/h 20.9 km/h 87 % 0 mm 0 W/m2
00:25 12.1 °C 10 °C 1002.6 hPa West 12.9 km/h 20.9 km/h 87 % 0 mm 0 W/m2
00:30 12.1 °C 10 °C 1002.6 hPa West 12.9 km/h 24.1 km/h 87 % 0 mm 0 W/m2
00:35 12.1 °C 10 °C 1002.6 hPa West 12.9 km/h 24.1 km/h 87 % 0 mm 0 W/m2
00:40 12.2 °C 10.1 °C 1002.6 hPa WSW 11.3 km/h 24.1 km/h 87 % 0 mm 0 W/m2
00:45 12.2 °C 10.1 °C 1002.6 hPa WSW 9.7 km/h 17.7 km/h 87 % 0 mm 0 W/m2
00:50 12.2 °C 10.1 °C 1002.9 hPa WSW 8 km/h 17.7 km/h 87 % 0 mm 0 W/m2
00:55 12.1 °C 10 °C 1002.9 hPa WSW 6.4 km/h 14.5 km/h 87 % 0 mm 0 W/m2
01:00 12.2 °C 10.1 °C 1002.9 hPa WSW 8 km/h 19.3 km/h 87 % 0 mm 0 W/m2
01:05 12.2 °C 10.1 °C 1002.6 hPa SW 11.3 km/h 19.3 km/h 87 % 0 mm 0 W/m2
01:10 12.3 °C 10.2 °C 1002.9 hPa WSW 11.3 km/h 19.3 km/h 87 % 0 mm 0 W/m2
01:15 12.3 °C 10.2 °C 1002.6 hPa WSW 9.7 km/h 16.1 km/h 87 % 0 mm 0 W/m2
01:20 12.4 °C 10.3 °C 1002.6 hPa WSW 9.7 km/h 16.1 km/h 87 % 0 mm 0 W/m2
01:21 12.4 °C 10.3 °C 1002.6 hPa WSW 9.7 km/h 16.1 km/h 87 % 0 mm 0 W/m2
01:26 12.4 °C 10.3 °C 1002.6 hPa WSW 11.3 km/h 20.9 km/h 87 % 0 mm 0 W/m2
01:31 12.5 °C 10.4 °C 1002.6 hPa WSW 11.3 km/h 20.9 km/h 87 % 0 mm 0 W/m2
01:36 12.6 °C 10.5 °C 1002.6 hPa WSW 12.9 km/h 20.9 km/h 87 % 0 mm 0 W/m2
01:41 12.6 °C 10.3 °C 1002.6 hPa WSW 14.5 km/h 22.5 km/h 86 % 0 mm 0 W/m2
01:46 12.6 °C 10.3 °C 1002.6 hPa WSW 11.3 km/h 22.5 km/h 86 % 0 mm 0 W/m2
01:51 12.6 °C 10.3 °C 1002.6 hPa WSW 9.7 km/h 19.3 km/h 86 % 0 mm 0 W/m2
01:56 12.4 °C 9.9 °C 1002.6 hPa WSW 9.7 km/h 19.3 km/h 85 % 0 mm 0 W/m2
02:01 12.4 °C 9.9 °C 1002.6 hPa West 9.7 km/h 17.7 km/h 85 % 0 mm 0 W/m2
02:06 12.3 °C 9.8 °C 1002.6 hPa West 11.3 km/h 29 km/h 85 % 0 mm 0 W/m2
02:11 12.3 °C 9.8 °C 1002.6 hPa West 12.9 km/h 29 km/h 85 % 0 mm 0 W/m2
02:16 12.3 °C 9.8 °C 1002.9 hPa West 12.9 km/h 29 km/h 85 % 0 mm 0 W/m2
02:21 12.2 °C 9.8 °C 1002.9 hPa West 11.3 km/h 17.7 km/h 85 % 0 mm 0 W/m2
02:26 12.2 °C 9.9 °C 1002.9 hPa West 9.7 km/h 17.7 km/h 86 % 0 mm 0 W/m2
02:31 12.1 °C 9.8 °C 1002.9 hPa West 11.3 km/h 17.7 km/h 86 % 0 mm 0 W/m2
02:36 12.1 °C 9.8 °C 1003.3 hPa West 11.3 km/h 19.3 km/h 86 % 0 mm 0 W/m2
02:41 12.1 °C 9.8 °C 1002.9 hPa West 9.7 km/h 19.3 km/h 86 % 0 mm 0 W/m2
02:46 12.1 °C 9.8 °C 1003.3 hPa WSW 11.3 km/h 20.9 km/h 86 % 0 mm 0 W/m2
02:51 12.1 °C 9.8 °C 1002.9 hPa West 11.3 km/h 20.9 km/h 86 % 0 mm 0 W/m2
02:56 12.1 °C 9.8 °C 1002.9 hPa West 11.3 km/h 20.9 km/h 86 % 0 mm 0 W/m2
03:01 12.1 °C 9.8 °C 1003.3 hPa West 11.3 km/h 20.9 km/h 86 % 0 mm 0 W/m2
03:06 12.1 °C 9.8 °C 1002.9 hPa West 11.3 km/h 19.3 km/h 86 % 0 mm 0 W/m2
03:11 12.1 °C 9.8 °C 1002.9 hPa West 12.9 km/h 20.9 km/h 86 % 0 mm 0 W/m2
03:16 12.1 °C 9.8 °C 1002.9 hPa WSW 14.5 km/h 25.7 km/h 86 % 0 mm 0 W/m2
03:21 12.1 °C 9.7 °C 1002.9 hPa West 12.9 km/h 25.7 km/h 85 % 0 mm 0 W/m2
03:26 12.1 °C 9.7 °C 1002.9 hPa West 11.3 km/h 24.1 km/h 85 % 0 mm 0 W/m2
03:31 11.9 °C 9.4 °C 1002.9 hPa West 11.3 km/h 17.7 km/h 85 % 0 mm 0 W/m2
03:36 11.8 °C 9.3 °C 1002.9 hPa West 11.3 km/h 20.9 km/h 85 % 0 mm 0 W/m2
03:41 11.8 °C 9.6 °C 1002.9 hPa West 9.7 km/h 20.9 km/h 86 % 0 mm 0 W/m2
03:46 11.7 °C 9.4 °C 1002.9 hPa West 8 km/h 17.7 km/h 86 % 0 mm 0 W/m2
03:51 11.6 °C 9.3 °C 1002.9 hPa West 6.4 km/h 16.1 km/h 86 % 0 mm 0 W/m2
03:56 11.6 °C 9.5 °C 1002.9 hPa WSW 8 km/h 16.1 km/h 87 % 0 mm 0 W/m2
03:59 11.6 °C 9.5 °C 1002.6 hPa WSW 6.4 km/h 16.1 km/h 87 % 0 mm 0 W/m2
04:04 11.5 °C 9.4 °C 1002.6 hPa WSW 6.4 km/h 12.9 km/h 87 % 0 mm 0 W/m2
04:09 11.5 °C 9.4 °C 1002.6 hPa WSW 6.4 km/h 12.9 km/h 87 % 0 mm 0 W/m2
04:14 11.5 °C 9.6 °C 1002.9 hPa WSW 3.2 km/h 11.3 km/h 88 % 0 mm 0 W/m2
04:19 11.4 °C 9.5 °C 1002.9 hPa WSW 3.2 km/h 11.3 km/h 88 % 0 mm 0 W/m2
04:24 11.5 °C 9.6 °C 1002.9 hPa WSW 4.8 km/h 12.9 km/h 88 % 0 mm 0 W/m2
04:29 11.6 °C 9.7 °C 1002.9 hPa WSW 8 km/h 14.5 km/h 88 % 0 mm 0 W/m2
04:34 11.7 °C 9.8 °C 1002.9 hPa WSW 8 km/h 14.5 km/h 88 % 0 mm 0 W/m2
04:39 11.8 °C 9.7 °C 1002.9 hPa SW 8 km/h 14.5 km/h 87 % 0 mm 0 W/m2
04:44 11.9 °C 9.8 °C 1002.6 hPa WSW 9.7 km/h 17.7 km/h 87 % 0 mm 0 W/m2
04:49 11.9 °C 9.6 °C 1002.6 hPa WSW 8 km/h 17.7 km/h 86 % 0 mm 0 W/m2
04:54 11.9 °C 9.6 °C 1002.6 hPa WSW 6.4 km/h 12.9 km/h 86 % 0 mm 0 W/m2
04:59 11.8 °C 9.6 °C 1002.6 hPa WSW 6.4 km/h 12.9 km/h 86 % 0 mm 0 W/m2
05:04 11.8 °C 9.6 °C 1002.6 hPa WSW 6.4 km/h 14.5 km/h 86 % 0 mm 5 W/m2
05:09 11.8 °C 9.6 °C 1002.6 hPa WSW 8 km/h 16.1 km/h 86 % 0 mm 5 W/m2
05:14 11.8 °C 9.6 °C 1002.9 hPa WSW 9.7 km/h 16.1 km/h 86 % 0 mm 5 W/m2
05:19 11.7 °C 9.4 °C 1002.9 hPa WSW 8 km/h 17.7 km/h 86 % 0 mm 7 W/m2
05:24 11.7 °C 9.4 °C 1002.9 hPa WSW 9.7 km/h 17.7 km/h 86 % 0 mm 7 W/m2
05:26 11.7 °C 9.4 °C 1002.9 hPa WSW 11.3 km/h 17.7 km/h 86 % 0 mm 7 W/m2
05:31 11.6 °C 9.2 °C 1002.9 hPa WSW 11.3 km/h 19.3 km/h 85 % 0 mm 9 W/m2
05:36 11.5 °C 9.1 °C 1002.9 hPa WSW 11.3 km/h 19.3 km/h 85 % 0 mm 11 W/m2
05:41 11.4 °C 8.9 °C 1002.9 hPa WSW 11.3 km/h 17.7 km/h 85 % 0 mm 12 W/m2
05:46 11.4 °C 8.9 °C 1002.9 hPa WSW 9.7 km/h 17.7 km/h 85 % 0 mm 14 W/m2
05:51 11.3 °C 9.1 °C 1002.9 hPa WSW 9.7 km/h 17.7 km/h 86 % 0 mm 23 W/m2
05:56 11.3 °C 8.9 °C 1002.9 hPa WSW 9.7 km/h 17.7 km/h 85 % 0 mm 30 W/m2
06:01 11.3 °C 9.1 °C 1002.9 hPa WSW 8 km/h 14.5 km/h 86 % 0 mm 44 W/m2
06:06 11.4 °C 9.2 °C 1002.9 hPa West 9.7 km/h 16.1 km/h 86 % 0 mm 49 W/m2
06:11 11.5 °C 9.1 °C 1002.9 hPa WSW 9.7 km/h 16.1 km/h 85 % 0 mm 60 W/m2
06:16 11.7 °C 9.3 °C 1002.9 hPa WSW 8 km/h 16.1 km/h 85 % 0 mm 76 W/m2
06:21 11.8 °C 9.3 °C 1002.9 hPa SW 9.7 km/h 22.5 km/h 85 % 0 mm 62 W/m2
06:26 11.9 °C 9.3 °C 1003.3 hPa SW 11.3 km/h 22.5 km/h 84 % 0 mm 51 W/m2
06:31 12.1 °C 9.3 °C 1003.3 hPa SW 11.3 km/h 22.5 km/h 83 % 0 mm 46 W/m2
06:36 12.1 °C 9.1 °C 1003.3 hPa SW 9.7 km/h 17.7 km/h 82 % 0 mm 49 W/m2
06:41 12.1 °C 9.1 °C 1003.3 hPa SW 9.7 km/h 17.7 km/h 82 % 0 mm 60 W/m2
06:46 12.2 °C 9.2 °C 1002.9 hPa SW 11.3 km/h 22.5 km/h 82 % 0 mm 60 W/m2
06:51 12.2 °C 9.2 °C 1003.3 hPa SW 11.3 km/h 22.5 km/h 82 % 0 mm 49 W/m2
06:56 12.2 °C 9.2 °C 1003.3 hPa SW 9.7 km/h 19.3 km/h 82 % 0 mm 70 W/m2
07:01 12.1 °C 9.1 °C 1003.3 hPa SW 8 km/h 14.5 km/h 82 % 0 mm 86 W/m2
07:06 12.2 °C 9.2 °C 1003.3 hPa SW 11.3 km/h 22.5 km/h 82 % 0 mm 107 W/m2
07:11 12.2 °C 9.2 °C 1003.3 hPa SW 12.9 km/h 22.5 km/h 82 % 0 mm 114 W/m2
07:16 12.3 °C 9.3 °C 1003.3 hPa WSW 12.9 km/h 22.5 km/h 82 % 0 mm 105 W/m2
07:21 12.3 °C 9.3 °C 1003.3 hPa WSW 12.9 km/h 20.9 km/h 82 % 0 mm 97 W/m2
07:26 12.3 °C 9.3 °C 1003.3 hPa SW 12.9 km/h 19.3 km/h 82 % 0 mm 88 W/m2
07:31 12.3 °C 9.3 °C 1003.3 hPa SW 11.3 km/h 19.3 km/h 82 % 0 mm 114 W/m2
07:36 12.4 °C 9.4 °C 1003.3 hPa SW 11.3 km/h 20.9 km/h 82 % 0 mm 176 W/m2
07:41 12.4 °C 9.6 °C 1003.3 hPa SW 11.3 km/h 20.9 km/h 83 % 0 mm 148 W/m2
07:46 12.6 °C 9.6 °C 1003.3 hPa SW 12.9 km/h 20.9 km/h 82 % 0 mm 130 W/m2
07:51 12.7 °C 9.7 °C 1003.6 hPa SW 14.5 km/h 24.1 km/h 82 % 0 mm 128 W/m2
07:56 12.8 °C 9.8 °C 1003.6 hPa SW 14.5 km/h 24.1 km/h 82 % 0 mm 151 W/m2
08:01 12.8 °C 9.6 °C 1003.6 hPa SW 14.5 km/h 24.1 km/h 81 % 0 mm 169 W/m2
08:06 13 °C 10 °C 1003.6 hPa SW 14.5 km/h 24.1 km/h 82 % 0 mm 185 W/m2
08:11 13.1 °C 9.9 °C 1003.6 hPa SW 14.5 km/h 25.7 km/h 81 % 0 mm 214 W/m2
08:16 13.2 °C 10 °C 1003.6 hPa SW 16.1 km/h 25.7 km/h 81 % 0 mm 223 W/m2
08:18 13.2 °C 10 °C 1003.6 hPa SW 16.1 km/h 25.7 km/h 81 % 0 mm 220 W/m2
08:23 13.3 °C 9.9 °C 1003.6 hPa SW 17.7 km/h 30.6 km/h 80 % 0 mm 218 W/m2
08:28 13.3 °C 9.9 °C 1003.3 hPa SW 16.1 km/h 30.6 km/h 80 % 0 mm 192 W/m2
08:33 13.3 °C 9.7 °C 1003.3 hPa SW 16.1 km/h 29 km/h 79 % 0 mm 156 W/m2
08:38 13.3 °C 9.7 °C 1003.3 hPa SW 16.1 km/h 29 km/h 79 % 0 mm 144 W/m2
08:43 13.3 °C 9.7 °C 1003.3 hPa SW 14.5 km/h 22.5 km/h 79 % 0 mm 146 W/m2
08:48 13.3 °C 9.7 °C 1003.3 hPa SW 12.9 km/h 22.5 km/h 79 % 0 mm 137 W/m2
08:53 13.3 °C 9.9 °C 1003.3 hPa SW 9.7 km/h 20.9 km/h 80 % 0 mm 139 W/m2
08:58 13.3 °C 9.9 °C 1003.3 hPa SW 8 km/h 16.1 km/h 80 % 0 mm 153 W/m2
09:03 13.3 °C 9.9 °C 1003.3 hPa SW 11.3 km/h 22.5 km/h 80 % 0 mm 190 W/m2
09:08 13.4 °C 10.2 °C 1003.3 hPa SW 12.9 km/h 22.5 km/h 81 % 0 mm 218 W/m2
09:13 13.4 °C 10.2 °C 1003.3 hPa SSW 11.3 km/h 22.5 km/h 81 % 0 mm 160 W/m2
09:19 13.5 °C 10.3 °C 1002.9 hPa SW 11.3 km/h 22.5 km/h 81 % 0 mm 134 W/m2
09:24 13.5 °C 10.3 °C 1003.3 hPa SW 12.9 km/h 19.3 km/h 81 % 0 mm 128 W/m2
09:29 13.6 °C 10.4 °C 1003.3 hPa SSW 12.9 km/h 22.5 km/h 81 % 0 mm 165 W/m2
09:34 13.6 °C 10.4 °C 1003.3 hPa SSW 12.9 km/h 22.5 km/h 81 % 0 mm 149 W/m2
09:39 13.7 °C 10.5 °C 1003.3 hPa SSW 12.9 km/h 22.5 km/h 81 % 0 mm 132 W/m2
09:44 13.7 °C 10.5 °C 1003.3 hPa SSW 12.9 km/h 22.5 km/h 81 % 0 mm 171 W/m2
09:49 13.7 °C 10.7 °C 1002.9 hPa South 12.9 km/h 22.5 km/h 82 % 0 mm 178 W/m2
09:54 13.8 °C 10.6 °C 1002.9 hPa South 11.3 km/h 19.3 km/h 81 % 0 mm 185 W/m2
09:59 13.8 °C 10.8 °C 1002.9 hPa South 11.3 km/h 20.9 km/h 82 % 0 mm 209 W/m2
10:04 13.9 °C 10.9 °C 1002.9 hPa South 11.3 km/h 20.9 km/h 82 % 0 mm 209 W/m2
10:09 14.1 °C 10.9 °C 1002.6 hPa South 11.3 km/h 24.1 km/h 81 % 0 mm 251 W/m2
10:14 14.2 °C 10.8 °C 1002.6 hPa South 12.9 km/h 24.1 km/h 80 % 0 mm 302 W/m2
10:19 14.4 °C 11.2 °C 1002.6 hPa SSW 11.3 km/h 20.9 km/h 81 % 0 mm 332 W/m2
10:24 14.6 °C 11 °C 1002.6 hPa SSW 11.3 km/h 25.7 km/h 79 % 0 mm 302 W/m2
10:29 14.7 °C 10.9 °C 1002.6 hPa SSW 12.9 km/h 25.7 km/h 78 % 0 mm 127 W/m2
10:34 14.8 °C 10.6 °C 1002.6 hPa SSW 16.1 km/h 32.2 km/h 76 % 0 mm 385 W/m2
10:39 14.9 °C 10.7 °C 1002.3 hPa SSW 17.7 km/h 32.2 km/h 76 % 0 mm 322 W/m2
10:44 15.1 °C 10.7 °C 1002.6 hPa SSW 19.3 km/h 32.2 km/h 75 % 0 mm 418 W/m2
10:49 15.3 °C 10.7 °C 1002.3 hPa SSW 19.3 km/h 35.4 km/h 74 % 0 mm 346 W/m2
10:54 15.6 °C 11 °C 1002.3 hPa SSW 17.7 km/h 35.4 km/h 74 % 0 mm 360 W/m2
10:59 15.7 °C 10.9 °C 1002.3 hPa SSW 14.5 km/h 30.6 km/h 73 % 0 mm 374 W/m2
11:04 15.8 °C 10.8 °C 1002.3 hPa SSW 17.7 km/h 38.6 km/h 72 % 0 mm 446 W/m2
11:09 15.9 °C 11.1 °C 1002.3 hPa SSW 20.9 km/h 38.6 km/h 73 % 0 mm 309 W/m2
11:14 15.7 °C 10.9 °C 1002.6 hPa SW 22.5 km/h 41.8 km/h 73 % 0 mm 141 W/m2
11:19 15.2 °C 11.4 °C 1002.6 hPa SW 22.5 km/h 41.8 km/h 78 % 0.25 mm 148 W/m2
11:24 14.8 °C 11.8 °C 1002.6 hPa SW 16.1 km/h 33.8 km/h 82 % 0.51 mm 148 W/m2
11:29 14.4 °C 11.6 °C 1002.6 hPa SW 14.5 km/h 24.1 km/h 83 % 0.51 mm 81 W/m2
11:34 14.1 °C 11.6 °C 1002.6 hPa SW 14.5 km/h 24.1 km/h 85 % 0.51 mm 105 W/m2
11:39 13.9 °C 11.6 °C 1002.9 hPa SW 12.9 km/h 20.9 km/h 86 % 0.51 mm 111 W/m2
11:44 13.7 °C 11.6 °C 1002.9 hPa SW 12.9 km/h 25.7 km/h 87 % 0.76 mm 107 W/m2
11:49 13.5 °C 11.4 °C 1002.9 hPa SW 17.7 km/h 33.8 km/h 87 % 1.02 mm 142 W/m2
11:54 13.3 °C 11.3 °C 1002.6 hPa SW 17.7 km/h 33.8 km/h 88 % 1.02 mm 158 W/m2
11:59 13.3 °C 11.5 °C 1002.6 hPa SW 12.9 km/h 22.5 km/h 89 % 1.02 mm 288 W/m2
12:04 13.4 °C 11.8 °C 1002.6 hPa WSW 9.7 km/h 20.9 km/h 90 % 1.27 mm 278 W/m2
12:09 13.4 °C 11.8 °C 1002.6 hPa SW 8 km/h 16.1 km/h 90 % 1.27 mm 387 W/m2
12:14 13.8 °C 12.5 °C 1002.6 hPa SW 9.7 km/h 16.1 km/h 92 % 1.27 mm 383 W/m2
12:19 14.1 °C 12.8 °C 1002.6 hPa SW 9.7 km/h 16.1 km/h 92 % 1.02 mm 563 W/m2
12:24 14.1 °C 12.5 °C 1002.6 hPa SW 11.3 km/h 25.7 km/h 90 % 0.76 mm 308 W/m2
12:29 14.3 °C 12.7 °C 1002.3 hPa SW 12.9 km/h 25.7 km/h 90 % 0.51 mm 450 W/m2
12:34 14.5 °C 12.9 °C 1002.3 hPa SW 12.9 km/h 25.7 km/h 90 % 0.51 mm 454 W/m2
12:39 14.9 °C 13.1 °C 1002.3 hPa SW 14.5 km/h 25.7 km/h 89 % 0.51 mm 445 W/m2
12:44 15.1 °C 12.9 °C 1002.3 hPa SW 14.5 km/h 22.5 km/h 87 % 0.51 mm 436 W/m2
12:49 15.4 °C 12.9 °C 1002.3 hPa SW 14.5 km/h 25.7 km/h 85 % 0.25 mm 1362 W/m2
12:54 15.7 °C 13 °C 1001.9 hPa SW 12.9 km/h 25.7 km/h 84 % 0.25 mm 394 W/m2
12:59 15.9 °C 12.8 °C 1001.9 hPa SSW 12.9 km/h 29 km/h 82 % 0 mm 538 W/m2
13:03 15.9 °C 12.7 °C 1001.9 hPa SSW 14.5 km/h 29 km/h 81 % 0 mm 758 W/m2
13:08 16.1 °C 12.4 °C 1001.9 hPa SW 17.7 km/h 30.6 km/h 79 % 0 mm 1034 W/m2
13:13 16.2 °C 12.2 °C 1001.9 hPa SW 19.3 km/h 30.6 km/h 77 % 0 mm 339 W/m2
13:18 16 °C 12.2 °C 1001.9 hPa SW 19.3 km/h 30.6 km/h 78 % 0 mm 390 W/m2
13:23 15.9 °C 12.4 °C 1001.9 hPa SW 16.1 km/h 30.6 km/h 80 % 0 mm 701 W/m2
13:28 15.9 °C 12.4 °C 1001.9 hPa SW 14.5 km/h 22.5 km/h 80 % 0 mm 417 W/m2
13:33 15.8 °C 12.6 °C 1001.9 hPa SW 16.1 km/h 32.2 km/h 81 % 0 mm 267 W/m2
13:38 15.6 °C 12.3 °C 1001.9 hPa SW 17.7 km/h 32.2 km/h 81 % 0 mm 415 W/m2
13:43 15.7 °C 13 °C 1001.9 hPa SW 16.1 km/h 25.7 km/h 84 % 0 mm 962 W/m2
13:48 15.8 °C 12.7 °C 1001.9 hPa SW 14.5 km/h 24.1 km/h 82 % 0 mm 979 W/m2
13:53 16.2 °C 12.6 °C 1001.9 hPa SW 16.1 km/h 32.2 km/h 79 % 0 mm 492 W/m2
13:59 16.4 °C 12.3 °C 1001.9 hPa WSW 17.7 km/h 32.2 km/h 77 % 0 mm 608 W/m2
14:04 16.8 °C 12.3 °C 1001.6 hPa WSW 19.3 km/h 35.4 km/h 75 % 0 mm 450 W/m2
14:09 16.9 °C 11.8 °C 1001.9 hPa WSW 20.9 km/h 40.2 km/h 72 % 0 mm 684 W/m2
14:14 17.2 °C 11.9 °C 1001.9 hPa WSW 17.7 km/h 32.2 km/h 71 % 0 mm 473 W/m2
14:19 17.3 °C 11.8 °C 1001.9 hPa WSW 19.3 km/h 37 km/h 70 % 0 mm 341 W/m2
14:24 17.2 °C 11.7 °C 1001.9 hPa WSW 20.9 km/h 40.2 km/h 70 % 0 mm 394 W/m2
14:29 17.3 °C 12 °C 1001.6 hPa WSW 19.3 km/h 40.2 km/h 71 % 0 mm 278 W/m2
14:34 17.3 °C 11.8 °C 1001.6 hPa WSW 16.1 km/h 32.2 km/h 70 % 0 mm 689 W/m2
14:39 17.5 °C 11.7 °C 1001.6 hPa West 20.9 km/h 38.6 km/h 69 % 0 mm 642 W/m2
14:44 17.7 °C 11.7 °C 1001.6 hPa WSW 24.1 km/h 43.5 km/h 68 % 0 mm 610 W/m2
14:49 17.9 °C 11.9 °C 1001.6 hPa WSW 25.7 km/h 43.5 km/h 68 % 0 mm 940 W/m2
14:54 18.3 °C 11.8 °C 1001.6 hPa WSW 22.5 km/h 38.6 km/h 66 % 0 mm 258 W/m2
14:59 18.2 °C 11.5 °C 1001.6 hPa West 22.5 km/h 38.6 km/h 65 % 0 mm 450 W/m2
15:04 18.2 °C 11.7 °C 1001.6 hPa West 22.5 km/h 38.6 km/h 66 % 0 mm 341 W/m2
15:09 18.2 °C 11.7 °C 1001.6 hPa West 19.3 km/h 30.6 km/h 66 % 0 mm 330 W/m2
15:14 18.4 °C 11.9 °C 1001.6 hPa West 17.7 km/h 30.6 km/h 66 % 0 mm 330 W/m2
15:19 18.7 °C 12 °C 1001.6 hPa WSW 17.7 km/h 38.6 km/h 65 % 0 mm 483 W/m2
15:24 18.8 °C 12.1 °C 1001.6 hPa WSW 17.7 km/h 38.6 km/h 65 % 0 mm 283 W/m2
15:29 18.6 °C 11.7 °C 1001.6 hPa WSW 16.1 km/h 32.2 km/h 64 % 0 mm 206 W/m2
15:34 18.3 °C 11.4 °C 1001.6 hPa West 19.3 km/h 33.8 km/h 64 % 0 mm 181 W/m2
15:39 18.1 °C 11.7 °C 1001.6 hPa West 17.7 km/h 33.8 km/h 66 % 0 mm 130 W/m2
15:44 17.9 °C 12.3 °C 1001.6 hPa WSW 14.5 km/h 24.1 km/h 70 % 0 mm 113 W/m2
15:49 17.5 °C 12.4 °C 1001.6 hPa West 14.5 km/h 30.6 km/h 72 % 0 mm 142 W/m2
15:54 17.1 °C 12.4 °C 1001.6 hPa West 16.1 km/h 30.6 km/h 74 % 0 mm 123 W/m2
15:59 16.6 °C 12.2 °C 1001.6 hPa West 14.5 km/h 25.7 km/h 75 % 0 mm 109 W/m2
16:04 16.3 °C 12.4 °C 1001.6 hPa West 12.9 km/h 25.7 km/h 78 % 0.25 mm 69 W/m2
16:09 15.8 °C 11.9 °C 1001.6 hPa WSW 14.5 km/h 30.6 km/h 78 % 0.25 mm 58 W/m2
16:15 15.2 °C 11.6 °C 1001.6 hPa West 17.7 km/h 37 km/h 79 % 0.51 mm 128 W/m2
16:20 14.7 °C 11.7 °C 1001.6 hPa West 19.3 km/h 37 km/h 82 % 0.51 mm 178 W/m2
16:25 14.5 °C 12 °C 1001.6 hPa West 16.1 km/h 32.2 km/h 85 % 0.51 mm 76 W/m2
16:30 14.4 °C 12.1 °C 1001.6 hPa WSW 9.7 km/h 20.9 km/h 86 % 0.76 mm 113 W/m2
16:35 14.3 °C 12.2 °C 1001.6 hPa West 8 km/h 12.9 km/h 87 % 0.76 mm 195 W/m2
16:40 14.4 °C 12.4 °C 1001.6 hPa West 6.4 km/h 12.9 km/h 88 % 0.76 mm 325 W/m2
16:45 14.7 °C 12.9 °C 1001.6 hPa West 6.4 km/h 12.9 km/h 89 % 0.76 mm 522 W/m2
16:50 15.1 °C 13.3 °C 1001.6 hPa West 6.4 km/h 14.5 km/h 89 % 0.76 mm 260 W/m2
16:55 15.3 °C 13.3 °C 1001.6 hPa West 8 km/h 17.7 km/h 88 % 0.76 mm 295 W/m2
17:00 15.7 °C 13.7 °C 1001.6 hPa WNW 8 km/h 17.7 km/h 88 % 0.76 mm 722 W/m2
17:05 16.1 °C 13.9 °C 1001.6 hPa WNW 6.4 km/h 16.1 km/h 87 % 0.51 mm 536 W/m2
17:10 16.3 °C 13.6 °C 1001.6 hPa West 6.4 km/h 14.5 km/h 84 % 0.51 mm 181 W/m2
17:15 16.4 °C 13.3 °C 1001.6 hPa WNW 6.4 km/h 16.1 km/h 82 % 0.25 mm 139 W/m2
17:20 16.6 °C 13.5 °C 1001.6 hPa WNW 4.8 km/h 16.1 km/h 82 % 0.25 mm 232 W/m2
17:25 16.6 °C 13.5 °C 1001.6 hPa WNW 4.8 km/h 12.9 km/h 82 % 0.25 mm 134 W/m2
17:30 16.6 °C 13.7 °C 1001.6 hPa WNW 6.4 km/h 12.9 km/h 83 % 0 mm 86 W/m2
17:35 16.6 °C 13.5 °C 1001.6 hPa WNW 8 km/h 16.1 km/h 82 % 0 mm 77 W/m2
17:40 16.5 °C 13.2 °C 1001.6 hPa WNW 9.7 km/h 17.7 km/h 81 % 0 mm 69 W/m2
17:45 16.4 °C 13.1 °C 1001.6 hPa WNW 11.3 km/h 20.9 km/h 81 % 0 mm 102 W/m2
17:50 16.3 °C 13.1 °C 1001.2 hPa WNW 9.7 km/h 20.9 km/h 81 % 0 mm 229 W/m2
17:55 16.3 °C 13.2 °C 1001.2 hPa WNW 8 km/h 14.5 km/h 82 % 0 mm 193 W/m2
18:00 16.3 °C 13.2 °C 1001.2 hPa WNW 6.4 km/h 12.9 km/h 82 % 0 mm 107 W/m2
18:05 16.2 °C 12.9 °C 1001.2 hPa WNW 8 km/h 16.1 km/h 81 % 0 mm 77 W/m2
18:10 16.2 °C 13.1 °C 1001.2 hPa West 8 km/h 16.1 km/h 82 % 0 mm 60 W/m2
18:15 16.2 °C 13.1 °C 1001.2 hPa West 6.4 km/h 14.5 km/h 82 % 0 mm 46 W/m2
18:20 16.1 °C 13.2 °C 1001.6 hPa WSW 6.4 km/h 14.5 km/h 83 % 0 mm 69 W/m2
18:25 16.1 °C 13.6 °C 1001.2 hPa WSW 6.4 km/h 16.1 km/h 85 % 0.25 mm 56 W/m2
18:30 15.9 °C 13.2 °C 1001.2 hPa WSW 9.7 km/h 17.7 km/h 84 % 0.25 mm 72 W/m2
18:35 15.8 °C 13.3 °C 1001.2 hPa WSW 9.7 km/h 17.7 km/h 85 % 0.25 mm 98 W/m2
18:40 15.8 °C 13.4 °C 1001.2 hPa WSW 6.4 km/h 14.5 km/h 86 % 0.25 mm 390 W/m2
18:45 15.9 °C 13.6 °C 1001.2 hPa SW 6.4 km/h 14.5 km/h 86 % 0.25 mm 392 W/m2
18:50 16.3 °C 13.8 °C 1001.2 hPa WSW 8 km/h 14.5 km/h 85 % 0.25 mm 352 W/m2
18:55 16.4 °C 13.9 °C 1001.2 hPa SW 8 km/h 12.9 km/h 85 % 0.25 mm 128 W/m2
19:00 16.5 °C 13.8 °C 1001.2 hPa SW 8 km/h 12.9 km/h 84 % 0.25 mm 114 W/m2
19:05 16.4 °C 13.5 °C 1001.2 hPa WSW 8 km/h 12.9 km/h 83 % 0.25 mm 98 W/m2
19:10 16.4 °C 13.5 °C 1001.2 hPa WSW 6.4 km/h 12.9 km/h 83 % 0.25 mm 105 W/m2
19:15 16.4 °C 13.7 °C 1001.2 hPa SW 4.8 km/h 9.7 km/h 84 % 0.25 mm 98 W/m2
19:21 16.3 °C 13.4 °C 1001.6 hPa WSW 4.8 km/h 12.9 km/h 83 % 0.25 mm 58 W/m2
19:26 16.3 °C 13.4 °C 1001.6 hPa WSW 8 km/h 19.3 km/h 83 % 0 mm 76 W/m2
19:31 16.1 °C 13.2 °C 1001.6 hPa WSW 12.9 km/h 25.7 km/h 83 % 0 mm 123 W/m2
19:36 15.8 °C 12.9 °C 1001.6 hPa WSW 14.5 km/h 25.7 km/h 83 % 0.25 mm 134 W/m2
19:41 15.6 °C 12.9 °C 1001.6 hPa WSW 12.9 km/h 24.1 km/h 84 % 0.25 mm 185 W/m2
19:46 15.6 °C 13.1 °C 1001.6 hPa WSW 9.7 km/h 17.7 km/h 85 % 0.25 mm 174 W/m2
19:51 15.6 °C 13.1 °C 1001.6 hPa West 9.7 km/h 17.7 km/h 85 % 0.25 mm 162 W/m2
19:56 15.6 °C 13.1 °C 1001.6 hPa West 8 km/h 16.1 km/h 85 % 0.25 mm 142 W/m2
20:01 15.6 °C 13.1 °C 1001.6 hPa WSW 6.4 km/h 11.3 km/h 85 % 0.25 mm 86 W/m2
20:06 15.6 °C 13.1 °C 1001.6 hPa WSW 8 km/h 14.5 km/h 85 % 0.25 mm 63 W/m2
20:11 15.5 °C 13 °C 1001.6 hPa WSW 8 km/h 14.5 km/h 85 % 0.25 mm 44 W/m2
20:16 15.4 °C 12.7 °C 1001.6 hPa WSW 6.4 km/h 14.5 km/h 84 % 0.25 mm 28 W/m2
20:21 15.3 °C 12.6 °C 1001.6 hPa WSW 8 km/h 14.5 km/h 84 % 0.25 mm 23 W/m2
20:26 15.2 °C 12.7 °C 1001.6 hPa SW 8 km/h 12.9 km/h 85 % 0.25 mm 21 W/m2
20:31 15.1 °C 12.8 °C 1001.6 hPa SW 8 km/h 12.9 km/h 86 % 0.25 mm 21 W/m2
20:36 14.9 °C 12.6 °C 1001.6 hPa SW 8 km/h 14.5 km/h 86 % 0 mm 21 W/m2
20:41 14.8 °C 12.5 °C 1001.6 hPa WSW 8 km/h 16.1 km/h 86 % 0 mm 21 W/m2
20:46 14.7 °C 12.6 °C 1001.6 hPa WSW 8 km/h 16.1 km/h 87 % 0 mm 18 W/m2
20:51 14.5 °C 12.2 °C 1001.6 hPa WSW 9.7 km/h 16.1 km/h 86 % 0 mm 14 W/m2
20:56 14.4 °C 12.1 °C 1001.6 hPa WSW 9.7 km/h 16.1 km/h 86 % 0 mm 11 W/m2
21:01 14.3 °C 12 °C 1001.6 hPa WSW 9.7 km/h 16.1 km/h 86 % 0 mm 7 W/m2
21:06 14.2 °C 11.9 °C 1001.6 hPa WSW 8 km/h 16.1 km/h 86 % 0 mm 5 W/m2
21:11 14.2 °C 11.9 °C 1001.6 hPa WSW 8 km/h 16.1 km/h 86 % 0 mm 0 W/m2
21:16 14.2 °C 11.9 °C 1001.6 hPa WSW 9.7 km/h 16.1 km/h 86 % 0 mm 0 W/m2
21:21 14.1 °C 11.8 °C 1001.9 hPa WSW 9.7 km/h 17.7 km/h 86 % 0 mm 0 W/m2
21:26 14.1 °C 11.9 °C 1001.9 hPa WSW 11.3 km/h 17.7 km/h 87 % 0 mm 0 W/m2
21:28 14.1 °C 11.9 °C 1001.9 hPa WSW 11.3 km/h 16.1 km/h 87 % 0 mm 0 W/m2
21:33 14.1 °C 11.9 °C 1001.9 hPa WSW 9.7 km/h 19.3 km/h 87 % 0 mm 0 W/m2
21:38 14.1 °C 11.9 °C 1001.9 hPa SW 9.7 km/h 19.3 km/h 87 % 0 mm 0 W/m2
21:43 14.1 °C 11.9 °C 1001.9 hPa SW 9.7 km/h 17.7 km/h 87 % 0 mm 0 W/m2
21:48 14.1 °C 11.9 °C 1001.9 hPa SW 9.7 km/h 17.7 km/h 87 % 0 mm 0 W/m2
21:53 14.1 °C 11.9 °C 1001.9 hPa WSW 9.7 km/h 19.3 km/h 87 % 0 mm 0 W/m2
21:58 14.1 °C 11.8 °C 1001.9 hPa SW 9.7 km/h 19.3 km/h 86 % 0 mm 0 W/m2
22:03 14.1 °C 11.8 °C 1001.9 hPa SW 9.7 km/h 16.1 km/h 86 % 0 mm 0 W/m2
22:08 14.1 °C 11.8 °C 1001.9 hPa SW 9.7 km/h 16.1 km/h 86 % 0 mm 0 W/m2
22:13 14.1 °C 11.6 °C 1001.9 hPa SW 8 km/h 12.9 km/h 85 % 0 mm 0 W/m2
22:18 14 °C 11.5 °C 1001.9 hPa SW 9.7 km/h 14.5 km/h 85 % 0 mm 0 W/m2
22:23 13.9 °C 11.4 °C 1001.9 hPa SW 9.7 km/h 14.5 km/h 85 % 0 mm 0 W/m2
22:28 13.9 °C 11.4 °C 1001.9 hPa SW 9.7 km/h 14.5 km/h 85 % 0 mm 0 W/m2
22:33 13.9 °C 11.4 °C 1001.9 hPa SW 9.7 km/h 16.1 km/h 85 % 0 mm 0 W/m2
22:34 13.9 °C 11.4 °C 1001.9 hPa SW 9.7 km/h 16.1 km/h 85 % 0 mm 0 W/m2
22:39 13.9 °C 11.4 °C 1001.9 hPa SW 11.3 km/h 19.3 km/h 85 % 0 mm 0 W/m2
22:44 13.9 °C 11.4 °C 1001.9 hPa SW 11.3 km/h 19.3 km/h 85 % 0 mm 0 W/m2
22:49 13.8 °C 11.3 °C 1001.9 hPa SW 9.7 km/h 16.1 km/h 85 % 0 mm 0 W/m2
22:54 13.8 °C 11.3 °C 1001.9 hPa SW 11.3 km/h 16.1 km/h 85 % 0 mm 0 W/m2
22:59 13.8 °C 11.3 °C 1001.9 hPa SW 9.7 km/h 16.1 km/h 85 % 0 mm 0 W/m2
23:04 13.7 °C 11.1 °C 1001.9 hPa SW 11.3 km/h 17.7 km/h 84 % 0 mm 0 W/m2
23:09 13.7 °C 11.1 °C 1001.9 hPa SW 11.3 km/h 19.3 km/h 84 % 0 mm 0 W/m2
23:14 13.6 °C 10.9 °C 1001.9 hPa SW 9.7 km/h 19.3 km/h 84 % 0 mm 0 W/m2
23:19 13.7 °C 11.1 °C 1001.9 hPa SW 11.3 km/h 20.9 km/h 84 % 0 mm 0 W/m2
23:24 13.7 °C 10.9 °C 1001.9 hPa SW 11.3 km/h 20.9 km/h 83 % 0 mm 0 W/m2
23:29 13.7 °C 10.9 °C 1001.9 hPa SW 9.7 km/h 17.7 km/h 83 % 0 mm 0 W/m2
23:34 13.7 °C 10.9 °C 1001.9 hPa SW 9.7 km/h 20.9 km/h 83 % 0 mm 0 W/m2
23:39 13.7 °C 10.9 °C 1001.9 hPa SW 9.7 km/h 20.9 km/h 83 % 0 mm 0 W/m2
23:44 13.7 °C 10.9 °C 1001.9 hPa SW 9.7 km/h 17.7 km/h 83 % 0 mm 0 W/m2
23:49 13.7 °C 11.1 °C 1001.9 hPa SW 11.3 km/h 19.3 km/h 84 % 0 mm 0 W/m2
23:54 13.7 °C 11.1 °C 1001.9 hPa SW 11.3 km/h 19.3 km/h 84 % 0 mm 0 W/m2
23:59 13.7 °C 11.1 °C 1001.9 hPa SW 9.7 km/h 16.1 km/h 84 % 0 mm 0 W/m2
Delerius-Weather
Compliments of Weather Underground - 2.25 mb

Data updates at regular intervals.